sensor_id;sensor_type;location;lat;lon;timestamp;pressure;altitude;pressure_sealevel;temperature;humidity
39769;BME280;38939;47.824;14.642;2023-04-25T00:00:41;96267.75;;;8.78;89.52
39769;BME280;38939;47.824;14.642;2023-04-25T00:01:42;96269.38;;;8.79;89.50
39769;BME280;38939;47.824;14.642;2023-04-25T00:02:44;96262.56;;;8.78;89.67
39769;BME280;38939;47.824;14.642;2023-04-25T00:03:48;96260.53;;;8.80;89.73
39769;BME280;38939;47.824;14.642;2023-04-25T00:04:51;96268.94;;;8.82;89.71
39769;BME280;38939;47.824;14.642;2023-04-25T00:05:53;96265.34;;;8.83;90.05
39769;BME280;38939;47.824;14.642;2023-04-25T00:06:58;96271.94;;;8.86;89.24
39769;BME280;38939;47.824;14.642;2023-04-25T00:08:03;96271.72;;;8.87;89.62
39769;BME280;38939;47.824;14.642;2023-04-25T00:09:05;96271.31;;;8.90;89.35
39769;BME280;38939;47.824;14.642;2023-04-25T00:10:11;96266.69;;;8.92;89.35
39769;BME280;38939;47.824;14.642;2023-04-25T00:11:13;96262.91;;;8.95;88.62
39769;BME280;38939;47.824;14.642;2023-04-25T00:12:15;96265.50;;;8.95;88.82
39769;BME280;38939;47.824;14.642;2023-04-25T00:13:17;96257.47;;;8.96;88.43
39769;BME280;38939;47.824;14.642;2023-04-25T00:14:21;96263.25;;;8.98;88.80
39769;BME280;38939;47.824;14.642;2023-04-25T00:15:23;96260.88;;;8.97;88.81
39769;BME280;38939;47.824;14.642;2023-04-25T00:16:26;96261.69;;;8.97;88.85
39769;BME280;38939;47.824;14.642;2023-04-25T00:17:28;96264.28;;;8.97;88.62
39769;BME280;38939;47.824;14.642;2023-04-25T00:18:30;96259.88;;;8.98;88.47
39769;BME280;38939;47.824;14.642;2023-04-25T00:19:34;96261.47;;;8.99;88.17
39769;BME280;38939;47.824;14.642;2023-04-25T00:20:36;96258.28;;;8.97;88.00
39769;BME280;38939;47.824;14.642;2023-04-25T00:21:38;96259.06;;;8.97;87.89
39769;BME280;38939;47.824;14.642;2023-04-25T00:22:42;96270.06;;;8.99;88.07
39769;BME280;38939;47.824;14.642;2023-04-25T00:23:43;96264.28;;;8.97;88.06
39769;BME280;38939;47.824;14.642;2023-04-25T00:24:47;96262.47;;;8.98;88.06
39769;BME280;38939;47.824;14.642;2023-04-25T00:25:49;96256.47;;;8.97;88.26
39769;BME280;38939;47.824;14.642;2023-04-25T00:26:51;96258.88;;;8.99;87.91
39769;BME280;38939;47.824;14.642;2023-04-25T00:27:53;96262.25;;;8.99;87.54
39769;BME280;38939;47.824;14.642;2023-04-25T00:28:55;96253.66;;;8.99;87.36
39769;BME280;38939;47.824;14.642;2023-04-25T00:29:57;96255.84;;;9.02;87.81
39769;BME280;38939;47.824;14.642;2023-04-25T00:30:59;96261.25;;;9.00;87.90
39769;BME280;38939;47.824;14.642;2023-04-25T00:32:01;96255.25;;;9.00;87.25
39769;BME280;38939;47.824;14.642;2023-04-25T00:33:03;96254.25;;;9.01;87.21
39769;BME280;38939;47.824;14.642;2023-04-25T00:34:06;96249.84;;;9.01;87.43
39769;BME280;38939;47.824;14.642;2023-04-25T00:35:08;96255.84;;;9.02;87.08
39769;BME280;38939;47.824;14.642;2023-04-25T00:36:10;96252.03;;;9.05;87.03
39769;BME280;38939;47.824;14.642;2023-04-25T00:37:12;96253.44;;;9.07;87.15
39769;BME280;38939;47.824;14.642;2023-04-25T00:38:14;96247.19;;;9.08;87.05
39769;BME280;38939;47.824;14.642;2023-04-25T00:39:16;96247.00;;;9.10;86.62
39769;BME280;38939;47.824;14.642;2023-04-25T00:40:18;96241.59;;;9.11;86.49
39769;BME280;38939;47.824;14.642;2023-04-25T00:41:20;96247.00;;;9.10;86.70
39769;BME280;38939;47.824;14.642;2023-04-25T00:42:22;96250.59;;;9.09;86.68
39769;BME280;38939;47.824;14.642;2023-04-25T00:43:27;96243.22;;;9.06;86.90
39769;BME280;38939;47.824;14.642;2023-04-25T00:44:29;96238.00;;;9.06;86.74
39769;BME280;38939;47.824;14.642;2023-04-25T00:45:31;96239.81;;;9.05;86.86
39769;BME280;38939;47.824;14.642;2023-04-25T00:46:34;96236.41;;;9.05;87.33
39769;BME280;38939;47.824;14.642;2023-04-25T00:47:37;96237.44;;;9.04;87.50
39769;BME280;38939;47.824;14.642;2023-04-25T00:48:39;96241.25;;;9.01;87.75
39769;BME280;38939;47.824;14.642;2023-04-25T00:49:41;96234.22;;;9.01;87.83
39769;BME280;38939;47.824;14.642;2023-04-25T00:50:45;96230.84;;;9.01;88.20
39769;BME280;38939;47.824;14.642;2023-04-25T00:51:50;96233.66;;;8.99;88.12
39769;BME280;38939;47.824;14.642;2023-04-25T00:52:52;96235.66;;;8.97;89.00
39769;BME280;38939;47.824;14.642;2023-04-25T00:53:54;96240.06;;;8.97;88.74
39769;BME280;38939;47.824;14.642;2023-04-25T00:54:56;96234.03;;;8.96;88.26
39769;BME280;38939;47.824;14.642;2023-04-25T00:55:57;96226.84;;;8.98;88.51
39769;BME280;38939;47.824;14.642;2023-04-25T00:56:59;96228.00;;;9.02;88.33
39769;BME280;38939;47.824;14.642;2023-04-25T00:58:02;96228.00;;;9.02;87.73
39769;BME280;38939;47.824;14.642;2023-04-25T00:59:04;96232.22;;;9.04;87.67
39769;BME280;38939;47.824;14.642;2023-04-25T01:00:06;96225.63;;;9.01;87.49
39769;BME280;38939;47.824;14.642;2023-04-25T01:01:09;96221.22;;;9.01;87.27
39769;BME280;38939;47.824;14.642;2023-04-25T01:02:11;96223.63;;;8.96;87.78
39769;BME280;38939;47.824;14.642;2023-04-25T01:03:14;96222.84;;;8.96;88.13
39769;BME280;38939;47.824;14.642;2023-04-25T01:04:19;96223.06;;;8.94;87.78
39769;BME280;38939;47.824;14.642;2023-04-25T01:05:22;96223.63;;;8.96;87.83
39769;BME280;38939;47.824;14.642;2023-04-25T01:06:24;96225.25;;;8.97;87.59
39769;BME280;38939;47.824;14.642;2023-04-25T01:07:26;96226.63;;;9.00;87.64
39769;BME280;38939;47.824;14.642;2023-04-25T01:08:27;96227.41;;;9.00;87.58
39769;BME280;38939;47.824;14.642;2023-04-25T01:09:30;96224.81;;;9.00;88.00
39769;BME280;38939;47.824;14.642;2023-04-25T01:10:32;96228.44;;;8.99;87.83
39769;BME280;38939;47.824;14.642;2023-04-25T01:11:34;96220.84;;;8.98;88.11
39769;BME280;38939;47.824;14.642;2023-04-25T01:12:36;96228.66;;;8.98;88.49
39769;BME280;38939;47.824;14.642;2023-04-25T01:13:38;96227.84;;;8.97;88.57
39769;BME280;38939;47.824;14.642;2023-04-25T01:14:40;96233.47;;;8.94;88.66
39769;BME280;38939;47.824;14.642;2023-04-25T01:15:42;96232.28;;;8.90;89.00
39769;BME280;38939;47.824;14.642;2023-04-25T01:16:44;96234.09;;;8.90;89.40
39769;BME280;38939;47.824;14.642;2023-04-25T01:17:46;96237.47;;;8.90;88.73
39769;BME280;38939;47.824;14.642;2023-04-25T01:18:48;96231.88;;;8.93;88.32
39769;BME280;38939;47.824;14.642;2023-04-25T01:19:51;96230.66;;;8.96;88.85
39769;BME280;38939;47.824;14.642;2023-04-25T01:20:53;96223.63;;;8.96;88.54
39769;BME280;38939;47.824;14.642;2023-04-25T01:21:56;96225.44;;;8.96;88.92
39769;BME280;38939;47.824;14.642;2023-04-25T01:22:58;96225.66;;;8.94;88.76
39769;BME280;38939;47.824;14.642;2023-04-25T01:24:00;96229.47;;;8.92;88.90
39769;BME280;38939;47.824;14.642;2023-04-25T01:25:02;96229.50;;;8.85;89.43
39769;BME280;38939;47.824;14.642;2023-04-25T01:26:04;96224.13;;;8.87;88.96
39769;BME280;38939;47.824;14.642;2023-04-25T01:27:07;96217.69;;;8.89;88.89
39769;BME280;38939;47.824;14.642;2023-04-25T01:28:10;96220.69;;;8.93;88.33
39769;BME280;38939;47.824;14.642;2023-04-25T01:29:12;96213.22;;;8.96;88.64
39769;BME280;38939;47.824;14.642;2023-04-25T01:30:14;96212.03;;;8.99;88.40
39769;BME280;38939;47.824;14.642;2023-04-25T01:31:15;96219.63;;;9.00;87.74
39769;BME280;38939;47.824;14.642;2023-04-25T01:32:18;96209.78;;;9.02;87.87
39769;BME280;38939;47.824;14.642;2023-04-25T01:33:21;96219.59;;;9.07;88.04
39769;BME280;38939;47.824;14.642;2023-04-25T01:34:22;96215.19;;;9.08;87.46
39769;BME280;38939;47.824;14.642;2023-04-25T01:35:24;96220.38;;;9.08;87.23
39769;BME280;38939;47.824;14.642;2023-04-25T01:36:26;96221.38;;;9.07;87.58
39769;BME280;38939;47.824;14.642;2023-04-25T01:37:28;96215.59;;;9.05;87.32
39769;BME280;38939;47.824;14.642;2023-04-25T01:38:30;96218.78;;;9.07;87.22
39769;BME280;38939;47.824;14.642;2023-04-25T01:39:32;96223.00;;;9.08;87.46
39769;BME280;38939;47.824;14.642;2023-04-25T01:40:35;96219.00;;;9.05;87.39
39769;BME280;38939;47.824;14.642;2023-04-25T01:41:40;96211.81;;;9.00;87.77
39769;BME280;38939;47.824;14.642;2023-04-25T01:42:42;96213.63;;;9.00;88.30
39769;BME280;38939;47.824;14.642;2023-04-25T01:43:44;96217.00;;;9.00;88.23
39769;BME280;38939;47.824;14.642;2023-04-25T01:44:46;96213.81;;;8.98;87.82
39769;BME280;38939;47.824;14.642;2023-04-25T01:45:48;96214.06;;;8.97;87.86
39769;BME280;38939;47.824;14.642;2023-04-25T01:46:51;96208.88;;;8.90;88.34
39769;BME280;38939;47.824;14.642;2023-04-25T01:47:53;96211.91;;;8.87;88.21
39769;BME280;38939;47.824;14.642;2023-04-25T01:48:55;96213.47;;;8.88;87.82
39769;BME280;38939;47.824;14.642;2023-04-25T01:49:57;96209.88;;;8.89;87.66
39769;BME280;38939;47.824;14.642;2023-04-25T01:50:58;96214.06;;;8.90;87.79
39769;BME280;38939;47.824;14.642;2023-04-25T01:52:00;96203.47;;;8.92;87.70
39769;BME280;38939;47.824;14.642;2023-04-25T01:53:02;96211.47;;;8.90;87.90
39769;BME280;38939;47.824;14.642;2023-04-25T01:54:05;96203.66;;;8.90;87.92
39769;BME280;38939;47.824;14.642;2023-04-25T01:55:07;96205.28;;;8.91;88.08
39769;BME280;38939;47.824;14.642;2023-04-25T01:56:09;96206.06;;;8.92;88.04
39769;BME280;38939;47.824;14.642;2023-04-25T01:57:11;96198.47;;;8.90;87.87
39769;BME280;38939;47.824;14.642;2023-04-25T01:58:13;96203.47;;;8.92;88.34
39769;BME280;38939;47.824;14.642;2023-04-25T01:59:15;96202.22;;;8.94;87.70
39769;BME280;38939;47.824;14.642;2023-04-25T02:00:17;96204.22;;;8.99;87.99
39769;BME280;38939;47.824;14.642;2023-04-25T02:01:19;96202.41;;;8.99;87.64
39769;BME280;38939;47.824;14.642;2023-04-25T02:02:21;96206.25;;;8.97;88.29
39769;BME280;38939;47.824;14.642;2023-04-25T02:03:23;96206.06;;;8.92;88.45
39769;BME280;38939;47.824;14.642;2023-04-25T02:04:26;96210.28;;;8.93;88.17
39769;BME280;38939;47.824;14.642;2023-04-25T02:05:28;96204.63;;;8.96;88.31
39769;BME280;38939;47.824;14.642;2023-04-25T02:06:30;96214.84;;;8.97;87.79
39769;BME280;38939;47.824;14.642;2023-04-25T02:07:32;96206.84;;;8.99;87.63
39769;BME280;38939;47.824;14.642;2023-04-25T02:08:34;96214.63;;;8.99;88.26
39769;BME280;38939;47.824;14.642;2023-04-25T02:09:36;96213.81;;;8.98;87.83
39769;BME280;38939;47.824;14.642;2023-04-25T02:10:38;96213.63;;;9.00;88.00
39769;BME280;38939;47.824;14.642;2023-04-25T02:11:40;96218.81;;;9.00;88.12
39769;BME280;38939;47.824;14.642;2023-04-25T02:12:42;96224.81;;;9.00;87.82
39769;BME280;38939;47.824;14.642;2023-04-25T02:13:43;96215.22;;;9.01;87.40
39769;BME280;38939;47.824;14.642;2023-04-25T02:14:45;96217.84;;;9.01;87.45
39769;BME280;38939;47.824;14.642;2023-04-25T02:15:47;96212.84;;;8.99;87.80
39769;BME280;38939;47.824;14.642;2023-04-25T02:16:49;96211.84;;;8.94;88.46
39769;BME280;38939;47.824;14.642;2023-04-25T02:17:52;96211.91;;;8.87;88.86
39769;BME280;38939;47.824;14.642;2023-04-25T02:18:55;96209.69;;;8.84;89.59
39769;BME280;38939;47.824;14.642;2023-04-25T02:19:57;96213.31;;;8.83;89.17
39769;BME280;38939;47.824;14.642;2023-04-25T02:20:59;96212.50;;;8.82;89.58
39769;BME280;38939;47.824;14.642;2023-04-25T02:22:01;96206.50;;;8.82;89.02
39769;BME280;38939;47.824;14.642;2023-04-25T02:23:03;96201.31;;;8.82;89.25
39769;BME280;38939;47.824;14.642;2023-04-25T02:24:05;96211.13;;;8.80;89.23
39769;BME280;38939;47.824;14.642;2023-04-25T02:25:08;96210.13;;;8.81;89.02
39769;BME280;38939;47.824;14.642;2023-04-25T02:26:10;96211.13;;;8.80;88.92
39769;BME280;38939;47.824;14.642;2023-04-25T02:27:14;96216.91;;;8.82;88.93
39769;BME280;38939;47.824;14.642;2023-04-25T02:28:16;96212.88;;;8.86;88.78
39769;BME280;38939;47.824;14.642;2023-04-25T02:29:18;96212.69;;;8.88;88.68
39769;BME280;38939;47.824;14.642;2023-04-25T02:30:20;96210.88;;;8.88;88.59
39769;BME280;38939;47.824;14.642;2023-04-25T02:31:22;96212.88;;;8.86;89.29
39769;BME280;38939;47.824;14.642;2023-04-25T02:32:24;96211.50;;;8.84;89.37
39769;BME280;38939;47.824;14.642;2023-04-25T02:33:26;96204.34;;;8.79;89.07
39769;BME280;38939;47.824;14.642;2023-04-25T02:34:28;96205.94;;;8.73;89.26
39769;BME280;38939;47.824;14.642;2023-04-25T02:35:30;96205.38;;;8.71;89.46
39769;BME280;38939;47.824;14.642;2023-04-25T02:36:32;96200.94;;;8.72;89.65
39769;BME280;38939;47.824;14.642;2023-04-25T02:37:38;96202.56;;;8.73;89.19
39769;BME280;38939;47.824;14.642;2023-04-25T02:38:40;96198.16;;;8.73;89.30
39769;BME280;38939;47.824;14.642;2023-04-25T02:39:43;96192.16;;;8.73;89.30
39769;BME280;38939;47.824;14.642;2023-04-25T02:40:45;96198.16;;;8.73;89.01
39769;BME280;38939;47.824;14.642;2023-04-25T02:41:47;96192.16;;;8.66;89.12
39769;BME280;38939;47.824;14.642;2023-04-25T02:42:49;96195.81;;;8.58;88.95
39769;BME280;38939;47.824;14.642;2023-04-25T02:43:50;96198.22;;;8.53;89.42
39769;BME280;38939;47.824;14.642;2023-04-25T02:44:53;96197.88;;;8.43;89.75
39769;BME280;38939;47.824;14.642;2023-04-25T02:45:55;96196.25;;;8.35;89.93
39769;BME280;38939;47.824;14.642;2023-04-25T02:46:57;96200.25;;;8.38;89.88
39769;BME280;38939;47.824;14.642;2023-04-25T02:47:58;96193.47;;;8.37;89.84
39769;BME280;38939;47.824;14.642;2023-04-25T02:49:00;96192.69;;;8.23;90.67
39769;BME280;38939;47.824;14.642;2023-04-25T02:50:03;96181.94;;;8.13;90.70
39769;BME280;38939;47.824;14.642;2023-04-25T02:51:05;96179.13;;;8.08;91.22
39769;BME280;38939;47.824;14.642;2023-04-25T02:52:06;96188.53;;;8.09;91.80
39769;BME280;38939;47.824;14.642;2023-04-25T02:53:08;96187.75;;;8.08;91.58
39769;BME280;38939;47.824;14.642;2023-04-25T02:54:10;96182.13;;;8.11;91.68
39769;BME280;38939;47.824;14.642;2023-04-25T02:55:13;96188.31;;;8.17;91.80
39769;BME280;38939;47.824;14.642;2023-04-25T02:56:15;96183.53;;;8.20;90.99
39769;BME280;38939;47.824;14.642;2023-04-25T02:57:17;96191.31;;;8.20;91.26
39769;BME280;38939;47.824;14.642;2023-04-25T02:58:19;96190.50;;;8.20;91.59
39769;BME280;38939;47.824;14.642;2023-04-25T02:59:21;96189.13;;;8.24;91.42
39769;BME280;38939;47.824;14.642;2023-04-25T03:00:23;96183.91;;;8.24;91.73
39769;BME280;38939;47.824;14.642;2023-04-25T03:01:25;96184.28;;;8.28;91.56
39769;BME280;38939;47.824;14.642;2023-04-25T03:02:26;96186.28;;;8.32;91.50
39769;BME280;38939;47.824;14.642;2023-04-25T03:03:28;96183.06;;;8.37;90.49
39769;BME280;38939;47.824;14.642;2023-04-25T03:04:30;96185.06;;;8.41;90.36
39769;BME280;38939;47.824;14.642;2023-04-25T03:05:33;96182.63;;;8.40;90.34
39769;BME280;38939;47.824;14.642;2023-04-25T03:06:35;96194.47;;;8.29;90.63
39769;BME280;38939;47.824;14.642;2023-04-25T03:07:37;96191.50;;;8.19;89.95
39769;BME280;38939;47.824;14.642;2023-04-25T03:08:40;96194.72;;;8.14;90.37
39769;BME280;38939;47.824;14.642;2023-04-25T03:09:42;96189.53;;;8.14;90.69
39769;BME280;38939;47.824;14.642;2023-04-25T03:10:45;96174.72;;;8.15;90.00
39769;BME280;38939;47.824;14.642;2023-04-25T03:11:47;96180.34;;;8.18;90.55
39769;BME280;38939;47.824;14.642;2023-04-25T03:12:49;96175.53;;;8.15;89.94
39769;BME280;38939;47.824;14.642;2023-04-25T03:13:51;96179.53;;;8.11;89.41
39769;BME280;38939;47.824;14.642;2023-04-25T03:14:53;96173.56;;;8.04;89.44
39769;BME280;38939;47.824;14.642;2023-04-25T03:15:55;96172.34;;;8.07;90.34
39769;BME280;38939;47.824;14.642;2023-04-25T03:16:57;96174.97;;;8.07;89.72
39769;BME280;38939;47.824;14.642;2023-04-25T03:17:59;96170.56;;;8.07;90.25
39769;BME280;38939;47.824;14.642;2023-04-25T03:19:01;96176.53;;;8.08;90.10
39769;BME280;38939;47.824;14.642;2023-04-25T03:20:03;96169.97;;;8.05;89.95
39769;BME280;38939;47.824;14.642;2023-04-25T03:21:05;96168.56;;;8.09;90.32
39769;BME280;38939;47.824;14.642;2023-04-25T03:22:07;96168.16;;;8.12;90.47
39769;BME280;38939;47.824;14.642;2023-04-25T03:23:09;96167.53;;;8.17;89.57
39769;BME280;38939;47.824;14.642;2023-04-25T03:24:11;96164.31;;;8.21;89.68
39769;BME280;38939;47.824;14.642;2023-04-25T03:25:13;96167.31;;;8.25;89.44
39769;BME280;38939;47.824;14.642;2023-04-25T03:26:15;96167.91;;;8.27;89.25
39769;BME280;38939;47.824;14.642;2023-04-25T03:27:17;96158.28;;;8.28;89.07
39769;BME280;38939;47.824;14.642;2023-04-25T03:28:19;96160.31;;;8.26;89.12
39769;BME280;38939;47.824;14.642;2023-04-25T03:29:21;96164.13;;;8.23;89.11
39769;BME280;38939;47.824;14.642;2023-04-25T03:30:26;96159.50;;;8.25;88.36
39769;BME280;38939;47.824;14.642;2023-04-25T03:31:27;96159.13;;;8.21;88.13
39769;BME280;38939;47.824;14.642;2023-04-25T03:32:29;96154.94;;;8.20;88.72
39769;BME280;38939;47.824;14.642;2023-04-25T03:33:31;96155.94;;;8.19;88.07
39769;BME280;38939;47.824;14.642;2023-04-25T03:34:33;96158.53;;;8.19;88.08
39769;BME280;38939;47.824;14.642;2023-04-25T03:35:35;96157.94;;;8.17;87.51
39769;BME280;38939;47.824;14.642;2023-04-25T03:36:37;96161.94;;;8.13;87.82
39769;BME280;38939;47.824;14.642;2023-04-25T03:37:41;96168.94;;;8.13;87.68
39769;BME280;38939;47.824;14.642;2023-04-25T03:38:47;96165.13;;;8.15;87.98
39769;BME280;38939;47.824;14.642;2023-04-25T03:39:49;96167.34;;;8.12;87.68
39769;BME280;38939;47.824;14.642;2023-04-25T03:40:51;96166.38;;;8.06;88.37
39769;BME280;38939;47.824;14.642;2023-04-25T03:41:53;96162.97;;;8.06;87.41
39769;BME280;38939;47.824;14.642;2023-04-25T03:42:55;96170.75;;;8.06;88.10
39769;BME280;38939;47.824;14.642;2023-04-25T03:43:57;96165.16;;;8.09;87.93
39769;BME280;38939;47.824;14.642;2023-04-25T03:44:59;96166.34;;;8.13;87.24
39769;BME280;38939;47.824;14.642;2023-04-25T03:46:01;96177.94;;;8.17;87.86
39769;BME280;38939;47.824;14.642;2023-04-25T03:47:03;96169.34;;;8.16;87.29
39769;BME280;38939;47.824;14.642;2023-04-25T03:48:05;96176.53;;;8.08;87.15
39769;BME280;38939;47.824;14.642;2023-04-25T03:49:07;96180.38;;;7.98;87.33
39769;BME280;38939;47.824;14.642;2023-04-25T03:50:08;96184.78;;;7.98;87.38
39769;BME280;38939;47.824;14.642;2023-04-25T03:51:10;96178.56;;;7.99;87.91
39769;BME280;38939;47.824;14.642;2023-04-25T03:52:12;96178.38;;;8.00;87.48
39769;BME280;38939;47.824;14.642;2023-04-25T03:53:14;96176.56;;;8.01;86.89
39769;BME280;38939;47.824;14.642;2023-04-25T03:54:16;96182.34;;;8.03;86.78
39769;BME280;38939;47.824;14.642;2023-04-25T03:55:18;96172.56;;;8.05;86.43
39769;BME280;38939;47.824;14.642;2023-04-25T03:56:20;96172.16;;;8.08;86.90
39769;BME280;38939;47.824;14.642;2023-04-25T03:57:22;96167.75;;;8.09;86.41
39769;BME280;38939;47.824;14.642;2023-04-25T03:58:24;96173.56;;;8.11;86.82
39769;BME280;38939;47.824;14.642;2023-04-25T03:59:26;96175.34;;;8.10;86.53
39769;BME280;38939;47.824;14.642;2023-04-25T04:00:28;96174.75;;;8.08;86.38
39769;BME280;38939;47.824;14.642;2023-04-25T04:01:30;96171.34;;;8.08;86.44
39769;BME280;38939;47.824;14.642;2023-04-25T04:02:32;96167.97;;;8.07;86.91
39769;BME280;38939;47.824;14.642;2023-04-25T04:03:36;96166.97;;;8.08;87.23
39769;BME280;38939;47.824;14.642;2023-04-25T04:04:39;96163.94;;;8.11;87.15
39769;BME280;38939;47.824;14.642;2023-04-25T04:05:41;96165.56;;;8.12;86.29
39769;BME280;38939;47.824;14.642;2023-04-25T04:06:43;96163.56;;;8.08;87.06
39769;BME280;38939;47.824;14.642;2023-04-25T04:07:45;96162.38;;;8.04;86.60
39769;BME280;38939;47.824;14.642;2023-04-25T04:08:47;96160.38;;;7.99;87.13
39769;BME280;38939;47.824;14.642;2023-04-25T04:09:49;96164.59;;;8.00;87.33
39769;BME280;38939;47.824;14.642;2023-04-25T04:10:50;96162.59;;;8.02;87.83
39769;BME280;38939;47.824;14.642;2023-04-25T04:11:52;96173.56;;;8.04;87.29
39769;BME280;38939;47.824;14.642;2023-04-25T04:12:54;96171.56;;;8.06;87.96
39769;BME280;38939;47.824;14.642;2023-04-25T04:13:56;96173.19;;;8.00;87.34
39769;BME280;38939;47.824;14.642;2023-04-25T04:14:58;96176.16;;;7.97;87.70
39769;BME280;38939;47.824;14.642;2023-04-25T04:16:00;96165.78;;;7.91;88.48
39769;BME280;38939;47.824;14.642;2023-04-25T04:17:02;96167.19;;;7.93;88.62
39769;BME280;38939;47.824;14.642;2023-04-25T04:18:04;96168.78;;;7.94;88.26
39769;BME280;38939;47.824;14.642;2023-04-25T04:19:06;96163.59;;;7.94;88.43
39769;BME280;38939;47.824;14.642;2023-04-25T04:20:08;96168.41;;;7.91;88.15
39769;BME280;38939;47.824;14.642;2023-04-25T04:21:10;96169.81;;;7.87;88.40
39769;BME280;38939;47.824;14.642;2023-04-25T04:22:12;96168.00;;;7.80;87.96
39769;BME280;38939;47.824;14.642;2023-04-25T04:23:14;96165.03;;;7.77;87.94
39769;BME280;38939;47.824;14.642;2023-04-25T04:24:16;96160.84;;;7.76;88.49
39769;BME280;38939;47.824;14.642;2023-04-25T04:25:18;96166.03;;;7.76;87.88
39769;BME280;38939;47.824;14.642;2023-04-25T04:26:20;96173.63;;;7.71;88.54
39769;BME280;38939;47.824;14.642;2023-04-25T04:27:25;96164.44;;;7.68;88.64
39769;BME280;38939;47.824;14.642;2023-04-25T04:28:27;96171.22;;;7.69;88.17
39769;BME280;38939;47.824;14.642;2023-04-25T04:29:29;96170.22;;;7.77;88.21
39769;BME280;38939;47.824;14.642;2023-04-25T04:30:31;96167.59;;;7.84;88.01
39769;BME280;38939;47.824;14.642;2023-04-25T04:31:34;96165.59;;;7.86;88.56
39769;BME280;38939;47.824;14.642;2023-04-25T04:32:37;96169.81;;;7.87;88.60
39769;BME280;38939;47.824;14.642;2023-04-25T04:33:39;96168.59;;;7.89;88.13
39769;BME280;38939;47.824;14.642;2023-04-25T04:34:41;96172.59;;;7.85;87.99
39769;BME280;38939;47.824;14.642;2023-04-25T04:35:43;96173.81;;;7.82;88.27
39769;BME280;38939;47.824;14.642;2023-04-25T04:36:45;96169.59;;;7.81;88.64
39769;BME280;38939;47.824;14.642;2023-04-25T04:37:48;96170.19;;;7.84;88.34
39769;BME280;38939;47.824;14.642;2023-04-25T04:38:50;96175.59;;;7.89;88.48
39769;BME280;38939;47.824;14.642;2023-04-25T04:39:52;96175.19;;;7.92;89.33
39769;BME280;38939;47.824;14.642;2023-04-25T04:40:53;96182.38;;;7.96;88.39
39769;BME280;38939;47.824;14.642;2023-04-25T04:41:55;96176.75;;;7.99;88.45
39769;BME280;38939;47.824;14.642;2023-04-25T04:42:57;96177.78;;;7.98;89.58
39769;BME280;38939;47.824;14.642;2023-04-25T04:43:59;96178.56;;;7.99;89.37
39769;BME280;38939;47.824;14.642;2023-04-25T04:45:02;96175.56;;;8.02;88.78
39769;BME280;38939;47.824;14.642;2023-04-25T04:46:05;96180.94;;;8.07;89.31
39769;BME280;38939;47.824;14.642;2023-04-25T04:47:07;96182.72;;;8.13;89.39
39769;BME280;38939;47.824;14.642;2023-04-25T04:48:09;96184.94;;;8.16;89.01
39769;BME280;38939;47.824;14.642;2023-04-25T04:49:13;96185.91;;;8.15;88.75
39769;BME280;38939;47.824;14.642;2023-04-25T04:50:15;96184.72;;;8.18;88.88
39769;BME280;38939;47.824;14.642;2023-04-25T04:51:17;96185.31;;;8.20;88.44
39769;BME280;38939;47.824;14.642;2023-04-25T04:52:19;96183.31;;;8.22;88.57
39769;BME280;38939;47.824;14.642;2023-04-25T04:53:21;96175.91;;;8.26;88.55
39769;BME280;38939;47.824;14.642;2023-04-25T04:54:23;96177.91;;;8.30;88.27
39769;BME280;38939;47.824;14.642;2023-04-25T04:55:25;96171.47;;;8.33;88.23
39769;BME280;38939;47.824;14.642;2023-04-25T04:56:27;96171.69;;;8.31;88.17
39769;BME280;38939;47.824;14.642;2023-04-25T04:57:29;96165.50;;;8.26;87.76
39769;BME280;38939;47.824;14.642;2023-04-25T04:58:32;96173.88;;;8.28;87.89
39769;BME280;38939;47.824;14.642;2023-04-25T04:59:34;96174.28;;;8.31;87.35
39769;BME280;38939;47.824;14.642;2023-04-25T05:00:37;96170.69;;;8.32;87.49
39769;BME280;38939;47.824;14.642;2023-04-25T05:01:40;96166.28;;;8.33;87.66
39769;BME280;38939;47.824;14.642;2023-04-25T05:02:42;96166.91;;;8.28;87.94
39769;BME280;38939;47.824;14.642;2023-04-25T05:03:44;96173.88;;;8.28;87.02
39769;BME280;38939;47.824;14.642;2023-04-25T05:04:46;96178.28;;;8.27;87.41
39769;BME280;38939;47.824;14.642;2023-04-25T05:05:48;96168.28;;;8.31;87.63
39769;BME280;38939;47.824;14.642;2023-04-25T05:06:50;96177.66;;;8.32;86.99
39769;BME280;38939;47.824;14.642;2023-04-25T05:07:52;96175.91;;;8.32;87.14
39769;BME280;38939;47.824;14.642;2023-04-25T05:08:54;96176.69;;;8.33;86.68
39769;BME280;38939;47.824;14.642;2023-04-25T05:09:56;96173.06;;;8.34;87.55
39769;BME280;38939;47.824;14.642;2023-04-25T05:10:58;96182.69;;;8.33;87.73
39769;BME280;38939;47.824;14.642;2023-04-25T05:12:00;96178.50;;;8.32;87.65
39769;BME280;38939;47.824;14.642;2023-04-25T05:13:02;96180.28;;;8.32;88.17
39769;BME280;38939;47.824;14.642;2023-04-25T05:14:04;96173.28;;;8.32;88.55
39769;BME280;38939;47.824;14.642;2023-04-25T05:15:06;96175.91;;;8.26;89.30
39769;BME280;38939;47.824;14.642;2023-04-25T05:16:08;96179.50;;;8.25;88.96
39769;BME280;38939;47.824;14.642;2023-04-25T05:17:10;96181.50;;;8.23;89.54
39769;BME280;38939;47.824;14.642;2023-04-25T05:18:12;96188.53;;;8.15;89.00
39769;BME280;38939;47.824;14.642;2023-04-25T05:19:14;96190.94;;;8.04;88.44
39769;BME280;38939;47.824;14.642;2023-04-25T05:20:16;96181.38;;;7.97;89.66
39769;BME280;38939;47.824;14.642;2023-04-25T05:21:20;96176.16;;;7.97;89.17
39769;BME280;38939;47.824;14.642;2023-04-25T05:22:23;96174.16;;;7.99;89.23
39769;BME280;38939;47.824;14.642;2023-04-25T05:23:25;96178.19;;;8.02;90.01
39769;BME280;38939;47.824;14.642;2023-04-25T05:24:27;96173.16;;;8.07;89.93
39769;BME280;38939;47.824;14.642;2023-04-25T05:25:28;96173.94;;;8.08;89.38
39769;BME280;38939;47.824;14.642;2023-04-25T05:26:30;96177.97;;;8.10;89.28
39769;BME280;38939;47.824;14.642;2023-04-25T05:27:32;96179.94;;;8.15;88.76
39769;BME280;38939;47.824;14.642;2023-04-25T05:28:34;96179.13;;;8.21;88.83
39769;BME280;38939;47.824;14.642;2023-04-25T05:29:36;96169.13;;;8.25;88.37